sensor_id;sensor_type;location;lat;lon;timestamp;temperature;humidity
1137;DHT22;557;48.466;7.950;2023-08-30T00:01:45;13.90;99.90
1137;DHT22;557;48.466;7.950;2023-08-30T00:04:33;13.80;99.90
1137;DHT22;557;48.466;7.950;2023-08-30T00:07:20;13.80;99.90
1137;DHT22;557;48.466;7.950;2023-08-30T00:10:09;13.80;99.90
1137;DHT22;557;48.466;7.950;2023-08-30T00:12:57;13.80;99.90
1137;DHT22;557;48.466;7.950;2023-08-30T00:15:44;13.80;99.90
1137;DHT22;557;48.466;7.950;2023-08-30T00:18:31;13.80;99.90
1137;DHT22;557;48.466;7.950;2023-08-30T00:21:19;13.80;99.90
1137;DHT22;557;48.466;7.950;2023-08-30T00:24:07;13.80;99.90
1137;DHT22;557;48.466;7.950;2023-08-30T00:26:55;13.80;99.90
1137;DHT22;557;48.466;7.950;2023-08-30T00:29:43;13.80;99.90
1137;DHT22;557;48.466;7.950;2023-08-30T00:32:30;13.80;99.90
1137;DHT22;557;48.466;7.950;2023-08-30T00:35:17;13.80;99.90
1137;DHT22;557;48.466;7.950;2023-08-30T00:38:04;13.80;99.90
1137;DHT22;557;48.466;7.950;2023-08-30T00:40:52;13.90;99.90
1137;DHT22;557;48.466;7.950;2023-08-30T00:43:40;13.90;99.90
1137;DHT22;557;48.466;7.950;2023-08-30T00:46:28;13.90;99.90
1137;DHT22;557;48.466;7.950;2023-08-30T00:49:15;13.80;99.90
1137;DHT22;557;48.466;7.950;2023-08-30T00:52:05;13.90;99.90
1137;DHT22;557;48.466;7.950;2023-08-30T00:54:53;13.90;99.90
1137;DHT22;557;48.466;7.950;2023-08-30T00:57:40;13.90;99.90
1137;DHT22;557;48.466;7.950;2023-08-30T01:00:29;14.00;99.90
1137;DHT22;557;48.466;7.950;2023-08-30T01:03:17;14.00;99.90
1137;DHT22;557;48.466;7.950;2023-08-30T01:06:04;13.90;99.90
1137;DHT22;557;48.466;7.950;2023-08-30T01:08:51;14.00;99.90
1137;DHT22;557;48.466;7.950;2023-08-30T01:11:43;13.90;99.90
1137;DHT22;557;48.466;7.950;2023-08-30T01:14:38;13.90;99.90
1137;DHT22;557;48.466;7.950;2023-08-30T01:17:29;13.90;99.90
1137;DHT22;557;48.466;7.950;2023-08-30T01:20:18;14.00;99.90
1137;DHT22;557;48.466;7.950;2023-08-30T01:23:15;13.90;99.90
1137;DHT22;557;48.466;7.950;2023-08-30T01:26:09;13.90;99.90
1137;DHT22;557;48.466;7.950;2023-08-30T01:29:01;13.90;99.90
1137;DHT22;557;48.466;7.950;2023-08-30T01:31:48;13.90;99.90
1137;DHT22;557;48.466;7.950;2023-08-30T01:34:37;13.90;99.90
1137;DHT22;557;48.466;7.950;2023-08-30T01:37:26;13.90;99.90
1137;DHT22;557;48.466;7.950;2023-08-30T01:40:15;13.90;99.90
1137;DHT22;557;48.466;7.950;2023-08-30T01:43:04;13.90;99.90
1137;DHT22;557;48.466;7.950;2023-08-30T01:45:54;13.90;99.90
1137;DHT22;557;48.466;7.950;2023-08-30T01:48:42;14.00;99.90
1137;DHT22;557;48.466;7.950;2023-08-30T01:51:30;14.00;99.90
1137;DHT22;557;48.466;7.950;2023-08-30T01:54:19;14.00;99.90
1137;DHT22;557;48.466;7.950;2023-08-30T01:57:07;14.00;99.90
1137;DHT22;557;48.466;7.950;2023-08-30T01:59:54;14.00;99.90
1137;DHT22;557;48.466;7.950;2023-08-30T02:02:43;13.90;99.90
1137;DHT22;557;48.466;7.950;2023-08-30T02:05:30;14.00;99.90
1137;DHT22;557;48.466;7.950;2023-08-30T02:08:22;13.90;99.90
1137;DHT22;557;48.466;7.950;2023-08-30T02:11:17;13.90;99.90
1137;DHT22;557;48.466;7.950;2023-08-30T02:14:08;13.90;99.90
1137;DHT22;557;48.466;7.950;2023-08-30T02:16:57;13.90;99.90
1137;DHT22;557;48.466;7.950;2023-08-30T02:19:47;13.90;99.90
1137;DHT22;557;48.466;7.950;2023-08-30T02:22:39;13.80;99.90
1137;DHT22;557;48.466;7.950;2023-08-30T02:25:26;13.80;99.90
1137;DHT22;557;48.466;7.950;2023-08-30T02:28:13;13.80;99.90
1137;DHT22;557;48.466;7.950;2023-08-30T02:31:00;13.70;99.90
1137;DHT22;557;48.466;7.950;2023-08-30T02:33:47;13.70;99.90
1137;DHT22;557;48.466;7.950;2023-08-30T02:36:36;13.70;99.90
1137;DHT22;557;48.466;7.950;2023-08-30T02:39:23;13.70;99.90
1137;DHT22;557;48.466;7.950;2023-08-30T02:42:11;13.70;99.90
1137;DHT22;557;48.466;7.950;2023-08-30T02:44:58;13.70;99.90
1137;DHT22;557;48.466;7.950;2023-08-30T02:47:45;13.70;99.90
1137;DHT22;557;48.466;7.950;2023-08-30T02:50:32;13.70;99.90
1137;DHT22;557;48.466;7.950;2023-08-30T02:53:21;13.70;99.90
1137;DHT22;557;48.466;7.950;2023-08-30T02:56:08;13.70;99.90
1137;DHT22;557;48.466;7.950;2023-08-30T02:58:57;13.60;99.90
1137;DHT22;557;48.466;7.950;2023-08-30T03:01:44;13.60;99.90
1137;DHT22;557;48.466;7.950;2023-08-30T03:04:31;13.60;99.90
1137;DHT22;557;48.466;7.950;2023-08-30T03:07:18;13.60;99.90
1137;DHT22;557;48.466;7.950;2023-08-30T03:10:08;13.60;99.90
1137;DHT22;557;48.466;7.950;2023-08-30T03:12:55;13.60;99.90
1137;DHT22;557;48.466;7.950;2023-08-30T03:15:42;13.60;99.90
1137;DHT22;557;48.466;7.950;2023-08-30T03:18:30;13.50;99.90
1137;DHT22;557;48.466;7.950;2023-08-30T03:21:17;13.50;99.90
1137;DHT22;557;48.466;7.950;2023-08-30T03:24:05;13.50;99.90
1137;DHT22;557;48.466;7.950;2023-08-30T03:26:53;13.50;99.90
1137;DHT22;557;48.466;7.950;2023-08-30T03:29:41;13.50;99.90
1137;DHT22;557;48.466;7.950;2023-08-30T03:32:28;13.40;99.90
1137;DHT22;557;48.466;7.950;2023-08-30T03:35:16;13.40;99.90
1137;DHT22;557;48.466;7.950;2023-08-30T03:38:06;13.40;99.90
1137;DHT22;557;48.466;7.950;2023-08-30T03:40:54;13.40;99.90
1137;DHT22;557;48.466;7.950;2023-08-30T03:43:42;13.40;99.90
1137;DHT22;557;48.466;7.950;2023-08-30T03:46:30;13.50;99.90
1137;DHT22;557;48.466;7.950;2023-08-30T03:49:17;13.40;99.90
1137;DHT22;557;48.466;7.950;2023-08-30T03:52:05;13.50;99.90
1137;DHT22;557;48.466;7.950;2023-08-30T03:54:52;13.50;99.90
1137;DHT22;557;48.466;7.950;2023-08-30T03:57:39;13.50;99.90
1137;DHT22;557;48.466;7.950;2023-08-30T04:00:28;13.50;99.90
1137;DHT22;557;48.466;7.950;2023-08-30T04:03:15;13.50;99.90
1137;DHT22;557;48.466;7.950;2023-08-30T04:06:02;13.50;99.90
1137;DHT22;557;48.466;7.950;2023-08-30T04:08:50;13.50;99.90
1137;DHT22;557;48.466;7.950;2023-08-30T04:11:37;13.50;99.90
1137;DHT22;557;48.466;7.950;2023-08-30T04:14:24;13.50;99.90
1137;DHT22;557;48.466;7.950;2023-08-30T04:17:13;13.40;99.90
1137;DHT22;557;48.466;7.950;2023-08-30T04:20:00;13.50;99.90
1137;DHT22;557;48.466;7.950;2023-08-30T04:22:47;13.50;99.90
1137;DHT22;557;48.466;7.950;2023-08-30T04:25:34;13.50;99.90
1137;DHT22;557;48.466;7.950;2023-08-30T04:28:22;13.50;99.90
1137;DHT22;557;48.466;7.950;2023-08-30T04:31:09;13.40;99.90
1137;DHT22;557;48.466;7.950;2023-08-30T04:33:57;13.40;99.90
1137;DHT22;557;48.466;7.950;2023-08-30T04:36:45;13.40;99.90
1137;DHT22;557;48.466;7.950;2023-08-30T04:39:32;13.50;99.90
1137;DHT22;557;48.466;7.950;2023-08-30T04:42:20;13.50;99.90
1137;DHT22;557;48.466;7.950;2023-08-30T04:45:08;13.40;99.90
1137;DHT22;557;48.466;7.950;2023-08-30T04:47:55;13.40;99.90
1137;DHT22;557;48.466;7.950;2023-08-30T04:50:44;13.40;99.90
1137;DHT22;557;48.466;7.950;2023-08-30T04:53:31;13.40;99.90
1137;DHT22;557;48.466;7.950;2023-08-30T04:56:18;13.40;99.90
1137;DHT22;557;48.466;7.950;2023-08-30T04:59:06;13.50;99.90
1137;DHT22;557;48.466;7.950;2023-08-30T05:01:53;13.40;99.90
1137;DHT22;557;48.466;7.950;2023-08-30T05:04:40;13.50;99.90
1137;DHT22;557;48.466;7.950;2023-08-30T05:07:29;13.60;99.90
1137;DHT22;557;48.466;7.950;2023-08-30T05:10:16;13.50;99.90
1137;DHT22;557;48.466;7.950;2023-08-30T05:13:03;13.60;99.90
1137;DHT22;557;48.466;7.950;2023-08-30T05:15:51;13.60;99.90
1137;DHT22;557;48.466;7.950;2023-08-30T05:18:38;13.60;99.90
1137;DHT22;557;48.466;7.950;2023-08-30T05:21:25;13.60;99.90
1137;DHT22;557;48.466;7.950;2023-08-30T05:24:14;13.70;99.90
1137;DHT22;557;48.466;7.950;2023-08-30T05:27:02;13.70;99.90
1137;DHT22;557;48.466;7.950;2023-08-30T05:29:49;13.60;99.90
1137;DHT22;557;48.466;7.950;2023-08-30T05:32:36;13.60;99.90
1137;DHT22;557;48.466;7.950;2023-08-30T05:35:24;13.60;99.90
1137;DHT22;557;48.466;7.950;2023-08-30T05:38:11;13.60;99.90
1137;DHT22;557;48.466;7.950;2023-08-30T05:41:00;13.60;99.90
1137;DHT22;557;48.466;7.950;2023-08-30T05:43:47;13.60;99.90
1137;DHT22;557;48.466;7.950;2023-08-30T05:46:34;13.60;99.90
1137;DHT22;557;48.466;7.950;2023-08-30T05:49:21;13.60;99.90
1137;DHT22;557;48.466;7.950;2023-08-30T05:52:08;13.60;99.90
1137;DHT22;557;48.466;7.950;2023-08-30T05:54:56;13.70;99.90
1137;DHT22;557;48.466;7.950;2023-08-30T05:57:44;13.70;99.90
1137;DHT22;557;48.466;7.950;2023-08-30T06:00:32;13.70;99.90
1137;DHT22;557;48.466;7.950;2023-08-30T06:03:19;13.70;99.90
1137;DHT22;557;48.466;7.950;2023-08-30T06:06:06;13.70;99.90
1137;DHT22;557;48.466;7.950;2023-08-30T06:08:53;13.70;99.90
1137;DHT22;557;48.466;7.950;2023-08-30T06:11:40;13.70;99.90
1137;DHT22;557;48.466;7.950;2023-08-30T06:14:29;13.80;99.90
1137;DHT22;557;48.466;7.950;2023-08-30T06:17:16;13.80;99.90
1137;DHT22;557;48.466;7.950;2023-08-30T06:20:04;13.80;99.90
1137;DHT22;557;48.466;7.950;2023-08-30T06:22:52;13.80;99.90
1137;DHT22;557;48.466;7.950;2023-08-30T06:25:39;13.90;99.90
1137;DHT22;557;48.466;7.950;2023-08-30T06:28:26;14.00;99.90
1137;DHT22;557;48.466;7.950;2023-08-30T06:31:15;14.00;99.90
1137;DHT22;557;48.466;7.950;2023-08-30T06:34:02;14.10;99.90
1137;DHT22;557;48.466;7.950;2023-08-30T06:36:49;14.00;99.90
1137;DHT22;557;48.466;7.950;2023-08-30T06:39:37;14.10;99.90
1137;DHT22;557;48.466;7.950;2023-08-30T06:42:24;14.20;99.90
1137;DHT22;557;48.466;7.950;2023-08-30T06:45:11;14.20;99.90
1137;DHT22;557;48.466;7.950;2023-08-30T06:48:00;14.30;99.90
1137;DHT22;557;48.466;7.950;2023-08-30T06:50:47;14.40;99.90
1137;DHT22;557;48.466;7.950;2023-08-30T06:53:34;14.50;99.90
1137;DHT22;557;48.466;7.950;2023-08-30T06:56:21;14.50;99.90
1137;DHT22;557;48.466;7.950;2023-08-30T06:59:09;14.50;99.90
1137;DHT22;557;48.466;7.950;2023-08-30T07:01:56;14.60;99.90
1137;DHT22;557;48.466;7.950;2023-08-30T07:04:44;14.50;99.90
1137;DHT22;557;48.466;7.950;2023-08-30T07:07:32;14.60;99.90
1137;DHT22;557;48.466;7.950;2023-08-30T07:10:19;14.60;99.90
1137;DHT22;557;48.466;7.950;2023-08-30T07:13:06;14.70;99.90
1137;DHT22;557;48.466;7.950;2023-08-30T07:15:56;14.70;99.90
1137;DHT22;557;48.466;7.950;2023-08-30T07:18:43;14.80;99.90
1137;DHT22;557;48.466;7.950;2023-08-30T07:21:32;14.80;99.90
1137;DHT22;557;48.466;7.950;2023-08-30T07:24:22;14.70;99.90
1137;DHT22;557;48.466;7.950;2023-08-30T07:27:12;14.70;99.90
1137;DHT22;557;48.466;7.950;2023-08-30T07:30:03;14.70;99.90
1137;DHT22;557;48.466;7.950;2023-08-30T07:32:51;14.80;99.90
1137;DHT22;557;48.466;7.950;2023-08-30T07:35:38;15.00;99.90
1137;DHT22;557;48.466;7.950;2023-08-30T07:38:27;15.10;99.90
1137;DHT22;557;48.466;7.950;2023-08-30T07:41:15;15.20;99.90
1137;DHT22;557;48.466;7.950;2023-08-30T07:44:02;15.30;99.90
1137;DHT22;557;48.466;7.950;2023-08-30T07:46:50;15.40;99.90
1137;DHT22;557;48.466;7.950;2023-08-30T07:49:37;15.40;99.90
1137;DHT22;557;48.466;7.950;2023-08-30T07:52:25;15.70;99.90
1137;DHT22;557;48.466;7.950;2023-08-30T07:55:14;15.80;99.90
1137;DHT22;557;48.466;7.950;2023-08-30T07:58:02;16.10;99.90
1137;DHT22;557;48.466;7.950;2023-08-30T08:00:50;16.30;79.70
1137;DHT22;557;48.466;7.950;2023-08-30T08:03:38;16.40;56.70
1137;DHT22;557;48.466;7.950;2023-08-30T08:06:27;16.30;27.00
1137;DHT22;557;48.466;7.950;2023-08-30T08:09:14;16.40;61.10
1137;DHT22;557;48.466;7.950;2023-08-30T08:12:03;16.70;7.00
1137;DHT22;557;48.466;7.950;2023-08-30T08:14:51;16.70;22.80
1137;DHT22;557;48.466;7.950;2023-08-30T08:17:39;16.90;1.00
1137;DHT22;557;48.466;7.950;2023-08-30T08:20:26;17.10;1.00
1137;DHT22;557;48.466;7.950;2023-08-30T08:23:13;17.20;8.40
1137;DHT22;557;48.466;7.950;2023-08-30T08:26:01;17.30;1.00
1137;DHT22;557;48.466;7.950;2023-08-30T08:28:49;17.30;1.00
1137;DHT22;557;48.466;7.950;2023-08-30T08:31:37;17.40;1.00
1137;DHT22;557;48.466;7.950;2023-08-30T08:34:24;17.60;1.00
1137;DHT22;557;48.466;7.950;2023-08-30T08:37:11;17.70;1.00
1137;DHT22;557;48.466;7.950;2023-08-30T08:39:59;17.60;1.00
1137;DHT22;557;48.466;7.950;2023-08-30T08:42:49;17.80;1.00
1137;DHT22;557;48.466;7.950;2023-08-30T08:45:39;18.10;1.00
1137;DHT22;557;48.466;7.950;2023-08-30T08:48:28;18.20;1.00
1137;DHT22;557;48.466;7.950;2023-08-30T08:51:16;18.40;1.00
1137;DHT22;557;48.466;7.950;2023-08-30T08:54:04;18.70;1.00
1137;DHT22;557;48.466;7.950;2023-08-30T08:56:52;19.00;1.00
1137;DHT22;557;48.466;7.950;2023-08-30T08:59:40;19.10;1.00
1137;DHT22;557;48.466;7.950;2023-08-30T09:02:29;19.20;99.90
1137;DHT22;557;48.466;7.950;2023-08-30T09:05:16;19.20;1.00
1137;DHT22;557;48.466;7.950;2023-08-30T09:08:05;19.50;1.00
1137;DHT22;557;48.466;7.950;2023-08-30T09:10:53;19.70;99.90
1137;DHT22;557;48.466;7.950;2023-08-30T09:13:41;19.60;99.90
1137;DHT22;557;48.466;7.950;2023-08-30T09:16:29;19.50;99.90
1137;DHT22;557;48.466;7.950;2023-08-30T09:19:20;19.40;99.90
1137;DHT22;557;48.466;7.950;2023-08-30T09:22:07;19.40;99.90
1137;DHT22;557;48.466;7.950;2023-08-30T09:24:54;19.40;99.90
1137;DHT22;557;48.466;7.950;2023-08-30T09:27:42;19.30;99.90
1137;DHT22;557;48.466;7.950;2023-08-30T09:30:29;19.30;99.90
1137;DHT22;557;48.466;7.950;2023-08-30T09:33:20;19.70;37.40
1137;DHT22;557;48.466;7.950;2023-08-30T09:36:11;20.00;99.90
1137;DHT22;557;48.466;7.950;2023-08-30T09:38:58;20.40;1.00
1137;DHT22;557;48.466;7.950;2023-08-30T09:41:47;20.20;99.90
1137;DHT22;557;48.466;7.950;2023-08-30T09:44:34;20.00;1.00
1137;DHT22;557;48.466;7.950;2023-08-30T09:47:24;19.80;99.90
1137;DHT22;557;48.466;7.950;2023-08-30T09:50:11;19.50;1.00
1137;DHT22;557;48.466;7.950;2023-08-30T09:53:02;19.40;99.90
1137;DHT22;557;48.466;7.950;2023-08-30T09:55:52;19.30;99.90
1137;DHT22;557;48.466;7.950;2023-08-30T09:58:41;19.40;99.90
1137;DHT22;557;48.466;7.950;2023-08-30T10:01:28;19.40;62.90
1137;DHT22;557;48.466;7.950;2023-08-30T10:04:18;19.50;99.90
1137;DHT22;557;48.466;7.950;2023-08-30T10:07:07;19.80;1.00
1137;DHT22;557;48.466;7.950;2023-08-30T10:09:56;20.10;52.50
1137;DHT22;557;48.466;7.950;2023-08-30T10:12:46;20.30;99.90
1137;DHT22;557;48.466;7.950;2023-08-30T10:15:36;20.60;21.20
1137;DHT22;557;48.466;7.950;2023-08-30T10:18:27;20.90;99.90
1137;DHT22;557;48.466;7.950;2023-08-30T10:21:19;21.20;1.00
1137;DHT22;557;48.466;7.950;2023-08-30T10:24:07;21.20;99.90
1137;DHT22;557;48.466;7.950;2023-08-30T10:26:58;21.40;99.90
1137;DHT22;557;48.466;7.950;2023-08-30T10:29:46;21.40;1.00
1137;DHT22;557;48.466;7.950;2023-08-30T10:32:39;21.60;1.00
1137;DHT22;557;48.466;7.950;2023-08-30T10:35:26;21.70;1.00
1137;DHT22;557;48.466;7.950;2023-08-30T10:38:13;22.00;99.90
1137;DHT22;557;48.466;7.950;2023-08-30T10:41:11;22.20;1.00
1137;DHT22;557;48.466;7.950;2023-08-30T10:44:01;22.30;99.90
1137;DHT22;557;48.466;7.950;2023-08-30T10:46:52;22.80;1.00
1137;DHT22;557;48.466;7.950;2023-08-30T10:49:42;22.90;1.00
1137;DHT22;557;48.466;7.950;2023-08-30T10:52:29;22.60;99.90
1137;DHT22;557;48.466;7.950;2023-08-30T10:55:17;22.40;99.90
1137;DHT22;557;48.466;7.950;2023-08-30T10:58:04;22.40;1.00
1137;DHT22;557;48.466;7.950;2023-08-30T11:00:52;22.80;1.00
1137;DHT22;557;48.466;7.950;2023-08-30T11:03:42;22.60;1.00
1137;DHT22;557;48.466;7.950;2023-08-30T11:06:29;22.70;1.00
1137;DHT22;557;48.466;7.950;2023-08-30T11:09:18;22.90;1.00
1137;DHT22;557;48.466;7.950;2023-08-30T11:12:06;23.20;99.90
1137;DHT22;557;48.466;7.950;2023-08-30T11:14:54;23.30;1.00
1137;DHT22;557;48.466;7.950;2023-08-30T11:17:43;23.40;99.90
1137;DHT22;557;48.466;7.950;2023-08-30T11:20:30;23.20;1.00
1137;DHT22;557;48.466;7.950;2023-08-30T11:23:17;23.50;1.00
1137;DHT22;557;48.466;7.950;2023-08-30T11:26:05;23.60;99.90
1137;DHT22;557;48.466;7.950;2023-08-30T11:28:54;23.60;99.90
1137;DHT22;557;48.466;7.950;2023-08-30T11:31:41;23.20;99.90
1137;DHT22;557;48.466;7.950;2023-08-30T11:34:32;23.00;99.90
1137;DHT22;557;48.466;7.950;2023-08-30T11:37:20;23.00;99.90
1137;DHT22;557;48.466;7.950;2023-08-30T11:40:08;23.10;99.90
1137;DHT22;557;48.466;7.950;2023-08-30T11:42:57;22.60;99.90
1137;DHT22;557;48.466;7.950;2023-08-30T11:45:45;22.70;99.90
1137;DHT22;557;48.466;7.950;2023-08-30T11:48:32;23.00;99.90
1137;DHT22;557;48.466;7.950;2023-08-30T11:51:21;22.90;99.90
1137;DHT22;557;48.466;7.950;2023-08-30T11:54:09;23.20;99.90
1137;DHT22;557;48.466;7.950;2023-08-30T11:56:56;23.50;99.90
1137;DHT22;557;48.466;7.950;2023-08-30T11:59:43;24.00;99.90
1137;DHT22;557;48.466;7.950;2023-08-30T12:02:31;24.40;99.90
1137;DHT22;557;48.466;7.950;2023-08-30T12:05:18;24.30;99.90
1137;DHT22;557;48.466;7.950;2023-08-30T12:08:17;23.60;99.90
1137;DHT22;557;48.466;7.950;2023-08-30T12:11:04;22.90;99.90
1137;DHT22;557;48.466;7.950;2023-08-30T12:13:52;22.70;1.00
1137;DHT22;557;48.466;7.950;2023-08-30T12:16:40;23.40;99.90
1137;DHT22;557;48.466;7.950;2023-08-30T12:19:28;23.70;99.90
1137;DHT22;557;48.466;7.950;2023-08-30T12:22:15;24.10;99.90
1137;DHT22;557;48.466;7.950;2023-08-30T12:25:14;24.10;99.90
1137;DHT22;557;48.466;7.950;2023-08-30T12:28:02;23.40;99.90
1137;DHT22;557;48.466;7.950;2023-08-30T12:30:50;22.60;99.90
1137;DHT22;557;48.466;7.950;2023-08-30T12:33:37;22.60;1.00
1137;DHT22;557;48.466;7.950;2023-08-30T12:36:26;23.70;99.90
1137;DHT22;557;48.466;7.950;2023-08-30T12:39:13;24.20;99.90
1137;DHT22;557;48.466;7.950;2023-08-30T12:42:02;24.40;99.90
1137;DHT22;557;48.466;7.950;2023-08-30T12:44:50;24.80;99.90
1137;DHT22;557;48.466;7.950;2023-08-30T12:47:37;24.50;99.90
1137;DHT22;557;48.466;7.950;2023-08-30T12:50:24;24.50;99.90
1137;DHT22;557;48.466;7.950;2023-08-30T12:53:12;24.80;99.90
1137;DHT22;557;48.466;7.950;2023-08-30T12:55:59;24.80;99.90
1137;DHT22;557;48.466;7.950;2023-08-30T12:58:47;24.60;99.90
1137;DHT22;557;48.466;7.950;2023-08-30T13:01:35;24.50;99.90
1137;DHT22;557;48.466;7.950;2023-08-30T13:04:22;23.70;99.90
1137;DHT22;557;48.466;7.950;2023-08-30T13:07:09;24.00;99.90
1137;DHT22;557;48.466;7.950;2023-08-30T13:09:57;24.30;99.90
1137;DHT22;557;48.466;7.950;2023-08-30T13:12:44;24.40;99.90
1137;DHT22;557;48.466;7.950;2023-08-30T13:15:33;24.80;99.90
1137;DHT22;557;48.466;7.950;2023-08-30T13:18:21;24.80;99.90
1137;DHT22;557;48.466;7.950;2023-08-30T13:21:08;24.80;99.90
1137;DHT22;557;48.466;7.950;2023-08-30T13:23:55;25.00;99.90
1137;DHT22;557;48.466;7.950;2023-08-30T13:26:43;25.00;99.90
1137;DHT22;557;48.466;7.950;2023-08-30T13:29:30;24.90;99.90
1137;DHT22;557;48.466;7.950;2023-08-30T13:32:19;24.90;99.90
1137;DHT22;557;48.466;7.950;2023-08-30T13:35:07;24.70;99.90
1137;DHT22;557;48.466;7.950;2023-08-30T13:37:54;24.80;99.90
1137;DHT22;557;48.466;7.950;2023-08-30T13:40:41;24.80;99.90
1137;DHT22;557;48.466;7.950;2023-08-30T13:43:29;24.60;99.90
1137;DHT22;557;48.466;7.950;2023-08-30T13:46:17;24.70;99.90
1137;DHT22;557;48.466;7.950;2023-08-30T13:49:05;24.60;99.90
1137;DHT22;557;48.466;7.950;2023-08-30T13:51:53;24.80;99.90
1137;DHT22;557;48.466;7.950;2023-08-30T13:54:40;24.90;99.90
1137;DHT22;557;48.466;7.950;2023-08-30T13:57:27;24.90;99.90
1137;DHT22;557;48.466;7.950;2023-08-30T14:00:15;24.70;99.90
1137;DHT22;557;48.466;7.950;2023-08-30T14:03:03;24.90;99.90
1137;DHT22;557;48.466;7.950;2023-08-30T14:05:51;24.90;99.90
1137;DHT22;557;48.466;7.950;2023-08-30T14:08:39;24.20;99.90
1137;DHT22;557;48.466;7.950;2023-08-30T14:11:26;23.70;99.90
1137;DHT22;557;48.466;7.950;2023-08-30T14:14:13;23.10;99.90
1137;DHT22;557;48.466;7.950;2023-08-30T14:17:00;23.30;99.90
1137;DHT22;557;48.466;7.950;2023-08-30T14:19:48;23.70;99.90
1137;DHT22;557;48.466;7.950;2023-08-30T14:22:36;24.00;99.90
1137;DHT22;557;48.466;7.950;2023-08-30T14:25:24;24.20;99.90
1137;DHT22;557;48.466;7.950;2023-08-30T14:28:11;24.50;99.90
1137;DHT22;557;48.466;7.950;2023-08-30T14:30:58;24.80;99.90
1137;DHT22;557;48.466;7.950;2023-08-30T14:33:45;24.80;99.90
1137;DHT22;557;48.466;7.950;2023-08-30T14:36:33;24.60;99.90
1137;DHT22;557;48.466;7.950;2023-08-30T14:39:21;24.60;99.90
1137;DHT22;557;48.466;7.950;2023-08-30T14:42:09;24.80;99.90
1137;DHT22;557;48.466;7.950;2023-08-30T14:44:56;24.70;99.90
1137;DHT22;557;48.466;7.950;2023-08-30T14:47:43;24.40;99.90
1137;DHT22;557;48.466;7.950;2023-08-30T14:50:30;24.50;99.90
1137;DHT22;557;48.466;7.950;2023-08-30T14:53:18;24.70;99.90
1137;DHT22;557;48.466;7.950;2023-08-30T14:56:06;25.00;99.90
1137;DHT22;557;48.466;7.950;2023-08-30T14:58:53;25.30;99.90
1137;DHT22;557;48.466;7.950;2023-08-30T15:01:41;25.50;99.90
1137;DHT22;557;48.466;7.950;2023-08-30T15:04:28;25.40;99.90
1137;DHT22;557;48.466;7.950;2023-08-30T15:07:16;25.00;99.90
1137;DHT22;557;48.466;7.950;2023-08-30T15:10:04;25.10;99.90
1137;DHT22;557;48.466;7.950;2023-08-30T15:12:53;25.10;99.90
1137;DHT22;557;48.466;7.950;2023-08-30T15:15:40;25.30;99.90
1137;DHT22;557;48.466;7.950;2023-08-30T15:18:27;25.50;99.90
1137;DHT22;557;48.466;7.950;2023-08-30T15:21:14;25.40;99.90
1137;DHT22;557;48.466;7.950;2023-08-30T15:24:02;24.70;99.90
1137;DHT22;557;48.466;7.950;2023-08-30T15:26:51;24.20;99.90
1137;DHT22;557;48.466;7.950;2023-08-30T15:29:39;24.00;99.90
1137;DHT22;557;48.466;7.950;2023-08-30T15:32:26;24.20;99.90
1137;DHT22;557;48.466;7.950;2023-08-30T15:35:15;24.50;99.90
1137;DHT22;557;48.466;7.950;2023-08-30T15:38:02;24.50;99.90
1137;DHT22;557;48.466;7.950;2023-08-30T15:40:53;24.50;99.90
1137;DHT22;557;48.466;7.950;2023-08-30T15:43:41;24.60;99.90
1137;DHT22;557;48.466;7.950;2023-08-30T15:46:29;24.70;99.90
1137;DHT22;557;48.466;7.950;2023-08-30T15:49:17;24.70;99.90
1137;DHT22;557;48.466;7.950;2023-08-30T15:52:04;24.50;99.90
1137;DHT22;557;48.466;7.950;2023-08-30T15:54:51;24.60;99.90
1137;DHT22;557;48.466;7.950;2023-08-30T15:57:40;24.60;99.90
1137;DHT22;557;48.466;7.950;2023-08-30T16:00:27;23.80;99.90
1137;DHT22;557;48.466;7.950;2023-08-30T16:03:16;23.30;99.90
1137;DHT22;557;48.466;7.950;2023-08-30T16:06:04;22.80;99.90
1137;DHT22;557;48.466;7.950;2023-08-30T16:08:51;22.70;99.90
1137;DHT22;557;48.466;7.950;2023-08-30T16:11:38;23.20;99.90
1137;DHT22;557;48.466;7.950;2023-08-30T16:14:25;23.90;99.90
1137;DHT22;557;48.466;7.950;2023-08-30T16:17:13;24.40;99.90
1137;DHT22;557;48.466;7.950;2023-08-30T16:20:02;24.40;99.90
1137;DHT22;557;48.466;7.950;2023-08-30T16:22:50;24.50;99.90
1137;DHT22;557;48.466;7.950;2023-08-30T16:25:37;24.70;99.90
1137;DHT22;557;48.466;7.950;2023-08-30T16:28:24;24.40;99.90
1137;DHT22;557;48.466;7.950;2023-08-30T16:31:11;23.90;99.90
1137;DHT22;557;48.466;7.950;2023-08-30T16:33:59;23.90;99.90
1137;DHT22;557;48.466;7.950;2023-08-30T16:36:48;23.40;99.90
1137;DHT22;557;48.466;7.950;2023-08-30T16:39:35;22.80;99.90
1137;DHT22;557;48.466;7.950;2023-08-30T16:42:22;22.40;99.90
1137;DHT22;557;48.466;7.950;2023-08-30T16:45:10;22.40;99.90
1137;DHT22;557;48.466;7.950;2023-08-30T16:47:57;22.30;99.90
1137;DHT22;557;48.466;7.950;2023-08-30T16:50:44;22.10;99.90
1137;DHT22;557;48.466;7.950;2023-08-30T16:53:33;21.90;99.90
1137;DHT22;557;48.466;7.950;2023-08-30T16:56:20;21.70;99.90
1137;DHT22;557;48.466;7.950;2023-08-30T16:59:08;21.60;99.90
1137;DHT22;557;48.466;7.950;2023-08-30T17:01:57;21.50;99.90
1137;DHT22;557;48.466;7.950;2023-08-30T17:04:44;21.40;99.90
1137;DHT22;557;48.466;7.950;2023-08-30T17:07:31;21.40;99.90
1137;DHT22;557;48.466;7.950;2023-08-30T17:10:20;21.30;99.90
1137;DHT22;557;48.466;7.950;2023-08-30T17:13:09;21.20;99.90
1137;DHT22;557;48.466;7.950;2023-08-30T17:15:56;21.10;99.90
1137;DHT22;557;48.466;7.950;2023-08-30T17:18:45;21.10;99.90
1137;DHT22;557;48.466;7.950;2023-08-30T17:21:32;21.00;99.90
1137;DHT22;557;48.466;7.950;2023-08-30T17:24:19;20.90;99.90
1137;DHT22;557;48.466;7.950;2023-08-30T17:27:09;20.90;99.90
1137;DHT22;557;48.466;7.950;2023-08-30T17:29:56;20.80;99.90
1137;DHT22;557;48.466;7.950;2023-08-30T17:32:44;20.70;99.90
1137;DHT22;557;48.466;7.950;2023-08-30T17:35:31;20.70;99.90
1137;DHT22;557;48.466;7.950;2023-08-30T17:38:20;20.70;99.90
1137;DHT22;557;48.466;7.950;2023-08-30T17:41:07;20.60;99.90
1137;DHT22;557;48.466;7.950;2023-08-30T17:43:56;20.60;99.90
1137;DHT22;557;48.466;7.950;2023-08-30T17:46:44;20.40;99.90
1137;DHT22;557;48.466;7.950;2023-08-30T17:49:31;20.40;99.90
1137;DHT22;557;48.466;7.950;2023-08-30T17:52:18;20.30;99.90
1137;DHT22;557;48.466;7.950;2023-08-30T17:55:06;20.20;99.90
1137;DHT22;557;48.466;7.950;2023-08-30T17:57:54;20.20;99.90
1137;DHT22;557;48.466;7.950;2023-08-30T18:00:43;20.20;1.00
1137;DHT22;557;48.466;7.950;2023-08-30T18:03:30;20.10;1.00
1137;DHT22;557;48.466;7.950;2023-08-30T18:06:17;20.10;1.00
1137;DHT22;557;48.466;7.950;2023-08-30T18:09:05;20.00;99.90
1137;DHT22;557;48.466;7.950;2023-08-30T18:11:54;20.00;99.90
1137;DHT22;557;48.466;7.950;2023-08-30T18:14:41;20.00;1.00
1137;DHT22;557;48.466;7.950;2023-08-30T18:17:33;20.00;1.00
1137;DHT22;557;48.466;7.950;2023-08-30T18:20:20;20.00;99.90
1137;DHT22;557;48.466;7.950;2023-08-30T18:23:10;20.00;1.00
1137;DHT22;557;48.466;7.950;2023-08-30T18:25:57;19.90;1.00
1137;DHT22;557;48.466;7.950;2023-08-30T18:28:44;19.80;1.00
1137;DHT22;557;48.466;7.950;2023-08-30T18:31:31;19.80;1.00
1137;DHT22;557;48.466;7.950;2023-08-30T18:34:20;19.70;1.00
1137;DHT22;557;48.466;7.950;2023-08-30T18:37:07;19.60;99.90